createdAt,value
2022-11-16T00:01:55.951Z,10.35
2022-11-16T00:06:52.607Z,10.37
2022-11-16T00:11:53.076Z,10.38
2022-11-16T00:16:55.347Z,10.38
2022-11-16T00:21:52.728Z,10.38
2022-11-16T00:26:52.380Z,10.39
2022-11-16T00:31:53.431Z,10.4
2022-11-16T00:36:52.418Z,10.39
2022-11-16T00:41:52.800Z,10.41
2022-11-16T00:46:54.937Z,10.42
2022-11-16T00:51:52.277Z,10.42
2022-11-16T00:56:56.600Z,10.42
2022-11-16T01:01:55.991Z,10.44
2022-11-16T01:06:52.420Z,10.44
2022-11-16T01:12:03.716Z,10.45
2022-11-16T01:16:52.534Z,10.46
2022-11-16T01:21:52.254Z,10.47
2022-11-16T01:26:56.516Z,10.45
2022-11-16T01:31:55.513Z,10.46
2022-11-16T01:36:52.604Z,10.48
2022-11-16T01:41:52.593Z,10.5
2022-11-16T01:46:52.522Z,10.52
2022-11-16T01:51:55.088Z,10.53
2022-11-16T01:56:54.325Z,10.54
2022-11-16T02:01:55.236Z,10.55
2022-11-16T02:06:59.782Z,10.55
2022-11-16T02:12:01.999Z,10.54
2022-11-16T02:16:57.447Z,10.54
2022-11-16T02:21:55.835Z,10.56
2022-11-16T02:27:03.660Z,10.55
2022-11-16T02:31:54.376Z,10.6
2022-11-16T02:36:53.203Z,10.6
2022-11-16T02:41:54.485Z,10.58
2022-11-16T02:46:58.376Z,10.54
2022-11-16T02:51:53.378Z,10.48
2022-11-16T02:56:58.962Z,10.44
2022-11-16T03:01:56.716Z,10.38
2022-11-16T03:06:54.111Z,10.34
2022-11-16T03:12:03.149Z,10.3
2022-11-16T03:16:55.022Z,10.26
2022-11-16T03:21:53.614Z,10.22
2022-11-16T03:26:54.568Z,10.19
2022-11-16T03:31:54.442Z,10.15
2022-11-16T03:36:54.190Z,10.12
2022-11-16T03:41:53.449Z,10.08
2022-11-16T03:46:52.258Z,10.06
2022-11-16T03:51:53.042Z,10.03
2022-11-16T03:56:52.203Z,10.01
2022-11-16T04:01:52.432Z,10.01
2022-11-16T04:07:03.629Z,10
2022-11-16T04:12:03.609Z,9.99
2022-11-16T04:17:03.535Z,9.97
2022-11-16T04:22:05.659Z,9.97
2022-11-16T04:27:05.927Z,9.97
2022-11-16T04:32:03.640Z,9.94
2022-11-16T04:37:03.587Z,9.94
2022-11-16T04:42:04.088Z,9.9
2022-11-16T04:47:03.625Z,9.88
2022-11-16T04:51:52.533Z,9.85
2022-11-16T04:56:52.390Z,9.83
2022-11-16T05:02:03.605Z,9.8
2022-11-16T05:06:52.293Z,9.78
2022-11-16T05:11:52.281Z,9.78
2022-11-16T05:16:52.345Z,9.75
2022-11-16T05:21:52.253Z,9.75
2022-11-16T05:26:52.251Z,9.71
2022-11-16T05:31:52.301Z,9.7
2022-11-16T05:36:52.340Z,9.67
2022-11-16T05:41:52.500Z,9.64
2022-11-16T05:46:52.571Z,9.63
2022-11-16T05:51:54.796Z,9.62
2022-11-16T05:56:52.596Z,9.6
2022-11-16T06:01:52.306Z,9.58
2022-11-16T06:06:52.356Z,9.56
2022-11-16T06:11:52.314Z,9.55
2022-11-16T06:16:52.247Z,9.52
2022-11-16T06:21:52.349Z,9.48
2022-11-16T06:26:52.210Z,9.45
2022-11-16T06:31:52.110Z,9.42
2022-11-16T06:36:52.377Z,9.38
2022-11-16T06:41:52.199Z,9.35
2022-11-16T06:46:55.240Z,9.33
2022-11-16T06:51:52.151Z,9.3
2022-11-16T06:56:52.346Z,9.29
2022-11-16T07:01:52.182Z,9.26
2022-11-16T07:06:52.335Z,9.21
2022-11-16T07:11:52.226Z,9.17
2022-11-16T07:16:56.402Z,9.13
2022-11-16T07:21:55.135Z,9.09
2022-11-16T07:26:52.246Z,9.05
2022-11-16T07:31:52.381Z,9.02
2022-11-16T07:36:52.208Z,8.97
2022-11-16T07:41:53.330Z,8.93
2022-11-16T07:46:52.176Z,8.9
2022-11-16T07:51:52.261Z,8.86
2022-11-16T07:56:52.395Z,8.83
2022-11-16T08:01:55.391Z,8.81
2022-11-16T08:06:52.312Z,8.82
2022-11-16T08:11:52.368Z,8.82
2022-11-16T08:16:52.125Z,8.81
2022-11-16T08:21:52.392Z,8.77
2022-11-16T08:26:53.943Z,8.77
2022-11-16T08:31:52.347Z,8.75
2022-11-16T08:36:52.371Z,8.75
2022-11-16T08:41:52.353Z,8.74
2022-11-16T08:46:52.130Z,8.75
2022-11-16T08:51:52.330Z,8.75
2022-11-16T08:56:52.215Z,8.79
2022-11-16T09:01:52.798Z,8.88
2022-11-16T09:06:52.811Z,8.85
2022-11-16T09:11:53.610Z,8.92
2022-11-16T09:16:52.113Z,8.99
2022-11-16T09:21:52.155Z,9.06
2022-11-16T09:26:52.190Z,9.09
2022-11-16T09:31:52.117Z,9.15
2022-11-16T09:36:52.208Z,9.22
2022-11-16T09:41:59.369Z,9.26
2022-11-16T09:46:53.495Z,9.33
2022-11-16T09:51:53.924Z,9.4
2022-11-16T09:56:54.424Z,9.44
2022-11-16T10:01:54.156Z,9.52
2022-11-16T10:06:55.046Z,9.59
2022-11-16T10:12:07.935Z,9.67
2022-11-16T10:16:57.023Z,9.72
2022-11-16T10:21:55.805Z,9.79
2022-11-16T10:26:55.081Z,9.85
2022-11-16T10:31:57.638Z,9.93
2022-11-16T10:36:52.132Z,10.01
2022-11-16T10:41:53.493Z,10.07
2022-11-16T10:46:58.979Z,10.1
2022-11-16T10:51:52.393Z,10.13
2022-11-16T10:56:55.043Z,10.17
2022-11-16T11:01:53.639Z,10.19
2022-11-16T11:06:52.941Z,10.25
2022-11-16T11:12:12.051Z,10.3
2022-11-16T11:16:56.087Z,10.36
2022-11-16T11:21:53.608Z,10.4
2022-11-16T11:26:55.016Z,10.46
2022-11-16T11:31:53.781Z,10.54
2022-11-16T11:36:54.559Z,10.6
2022-11-16T11:42:06.362Z,10.64
2022-11-16T11:47:55.422Z,10.63
2022-11-16T11:51:53.235Z,10.69
2022-11-16T11:56:52.197Z,10.72
2022-11-16T12:01:58.510Z,10.74
2022-11-16T12:07:00.536Z,10.78
2022-11-16T12:12:03.187Z,10.74
2022-11-16T12:16:55.872Z,10.8
2022-11-16T12:21:58.778Z,10.88
2022-11-16T12:26:56.865Z,10.9
2022-11-16T12:32:00.108Z,10.81
2022-11-16T12:36:56.287Z,10.76
2022-11-16T12:42:05.888Z,10.76
2022-11-16T12:46:58.487Z,10.81
2022-11-16T12:52:00.900Z,10.8
2022-11-16T12:56:56.494Z,10.88
2022-11-16T13:02:00.283Z,11.03
2022-11-16T13:06:54.626Z,11.08
2022-11-16T13:11:54.315Z,11.13
2022-11-16T13:16:53.688Z,11.12
2022-11-16T13:21:57.464Z,11.14
2022-11-16T13:26:57.697Z,11.1
2022-11-16T13:31:55.948Z,11
2022-11-16T13:36:55.126Z,10.87
2022-11-16T13:41:53.162Z,10.76
2022-11-16T13:46:56.601Z,10.74
2022-11-16T13:52:07.024Z,10.7
2022-11-16T13:56:55.632Z,10.74
2022-11-16T14:02:02.688Z,10.8
2022-11-16T14:07:04.383Z,10.81
2022-11-16T14:11:52.004Z,10.77
2022-11-16T14:16:58.409Z,10.75
2022-11-16T14:21:54.698Z,10.64
2022-11-16T14:26:57.494Z,10.59
2022-11-16T14:31:56.706Z,10.51
2022-11-16T14:36:53.185Z,10.45
2022-11-16T14:41:52.222Z,10.43
2022-11-16T14:46:52.116Z,10.39
2022-11-16T14:51:53.644Z,10.37
2022-11-16T14:57:09.434Z,10.34
2022-11-16T15:01:55.490Z,10.29
2022-11-16T15:06:53.371Z,10.21
2022-11-16T15:12:04.906Z,10.12
2022-11-16T15:16:56.560Z,10.04
2022-11-16T15:22:02.938Z,9.97
2022-11-16T15:26:52.124Z,9.88
2022-11-16T15:31:55.215Z,9.79
2022-11-16T15:36:51.996Z,9.7
2022-11-16T15:42:00.374Z,9.61
2022-11-16T15:46:53.870Z,9.52
2022-11-16T15:51:51.985Z,9.43
2022-11-16T15:56:52.934Z,9.35
2022-11-16T16:01:52.615Z,9.25
2022-11-16T16:06:53.644Z,9.19
2022-11-16T16:11:55.166Z,9.12
2022-11-16T16:16:53.473Z,9.07
2022-11-16T16:21:51.994Z,9
2022-11-16T16:26:52.018Z,8.96
2022-11-16T16:31:52.045Z,8.88
2022-11-16T16:36:52.158Z,8.83
2022-11-16T16:41:59.422Z,8.77
2022-11-16T16:46:52.147Z,8.73
2022-11-16T16:51:51.912Z,8.71
2022-11-16T16:56:52.114Z,8.64
2022-11-16T17:01:51.965Z,8.61
2022-11-16T17:06:53.954Z,8.57
2022-11-16T17:11:52.119Z,8.53
2022-11-16T17:16:52.288Z,8.52
2022-11-16T17:21:52.015Z,8.48
2022-11-16T17:26:52.888Z,8.46
2022-11-16T17:31:53.930Z,8.45
2022-11-16T17:36:52.040Z,8.44
2022-11-16T17:41:52.058Z,8.41
2022-11-16T17:46:52.078Z,8.4
2022-11-16T17:51:54.314Z,8.39
2022-11-16T17:56:52.225Z,8.38
2022-11-16T18:01:52.241Z,8.35
2022-11-16T18:06:51.977Z,8.33
2022-11-16T18:11:52.258Z,8.31
2022-11-16T18:16:52.103Z,8.28
2022-11-16T18:21:52.006Z,8.24
2022-11-16T18:26:51.981Z,8.22
2022-11-16T18:31:52.068Z,8.21
2022-11-16T18:36:52.237Z,8.21
2022-11-16T18:41:55.065Z,8.2
2022-11-16T18:46:52.204Z,8.23
2022-11-16T18:51:52.250Z,8.21
2022-11-16T18:56:52.103Z,8.2
2022-11-16T19:01:52.074Z,8.19
2022-11-16T19:06:52.040Z,8.19
2022-11-16T19:11:52.050Z,8.18
2022-11-16T19:16:56.960Z,8.18
2022-11-16T19:21:51.969Z,8.19
2022-11-16T19:26:51.965Z,8.23
2022-11-16T19:31:52.056Z,8.25
2022-11-16T19:36:52.316Z,8.26
2022-11-16T19:41:51.860Z,8.29
2022-11-16T19:46:52.871Z,8.31
2022-11-16T19:51:51.981Z,8.3
2022-11-16T19:56:55.071Z,8.32
2022-11-16T20:01:52.093Z,8.33
2022-11-16T20:06:52.021Z,8.39
2022-11-16T20:11:51.981Z,8.49
2022-11-16T20:16:53.018Z,8.53
2022-11-16T20:21:52.994Z,8.52
2022-11-16T20:26:52.957Z,8.52
2022-11-16T20:31:54.460Z,8.59
2022-11-16T20:36:54.527Z,8.56
2022-11-16T20:41:52.099Z,8.59
2022-11-16T20:46:52.642Z,8.67
2022-11-16T20:51:51.857Z,8.71
2022-11-16T20:56:52.777Z,8.74
2022-11-16T21:01:56.029Z,8.76
2022-11-16T21:06:51.866Z,8.8
2022-11-16T21:12:03.461Z,8.8
2022-11-16T21:16:51.868Z,8.81
2022-11-16T21:21:51.864Z,8.8
2022-11-16T21:26:52.297Z,8.81
2022-11-16T21:31:52.379Z,8.8
2022-11-16T21:36:52.113Z,8.82
2022-11-16T21:41:51.878Z,8.83
2022-11-16T21:46:53.179Z,8.82
2022-11-16T21:51:52.934Z,8.83
2022-11-16T21:56:51.854Z,8.84
2022-11-16T22:02:03.681Z,8.84
2022-11-16T22:07:03.280Z,8.86
2022-11-16T22:11:51.830Z,8.86
2022-11-16T22:16:51.817Z,8.87
2022-11-16T22:21:51.853Z,8.88
2022-11-16T22:26:51.857Z,8.88
2022-11-16T22:31:52.011Z,8.9
2022-11-16T22:36:51.999Z,8.9
2022-11-16T22:41:51.978Z,8.91
2022-11-16T22:46:52.781Z,8.93
2022-11-16T22:51:51.991Z,8.95
2022-11-16T22:56:51.990Z,8.97
2022-11-16T23:01:51.935Z,8.97
2022-11-16T23:06:52.196Z,9
2022-11-16T23:12:03.191Z,9.01
2022-11-16T23:16:51.878Z,9.02
2022-11-16T23:22:03.136Z,9.02
2022-11-16T23:27:03.148Z,9.04
2022-11-16T23:31:51.902Z,9.05
2022-11-16T23:36:52.105Z,9.06
2022-11-16T23:42:03.225Z,9.05
2022-11-16T23:46:52.787Z,9.04
2022-11-16T23:51:51.854Z,9.02
2022-11-16T23:56:51.926Z,9.01
